This is the latest recevied weather packets stored in our database for station/object K3SV. If no packets are shown the sender has not sent any weather packets the latest 10 day(s).
| Time | Temp. | Humidity | Pressure | Rain* | Wind** | Luminosity | Snow |
|---|---|---|---|---|---|---|---|
| 1778087257 | 31.67° C | 52% | 1017 hPa | 0 mm | - | 719 W/m² | - |
| 1778086953 | 31.11° C | 53% | 1016.8 hPa | 0 mm | - | 745 W/m² | - |
| 1778086652 | 31.11° C | 53% | 1017.1 hPa | 0 mm | - | 721 W/m² | - |
| 1778086349 | 31.67° C | 51% | 1017 hPa | 0 mm | - | 752 W/m² | - |
| 1778086046 | 30.56° C | 55% | 1017 hPa | 0 mm | - | 719 W/m² | - |
| 1778085743 | 30.56° C | 55% | 1016.9 hPa | 0 mm | - | 682 W/m² | - |
| 1778085439 | 30.56° C | 55% | 1016.9 hPa | 0 mm | - | 729 W/m² | - |
| 1778085134 | 30.56° C | 55% | 1017 hPa | 0 mm | - | 719 W/m² | - |
| 1778084831 | 30.56° C | 55% | 1017.2 hPa | 0 mm | - | 633 W/m² | - |
| 1778084528 | 30.56° C | 58% | 1017.4 hPa | 0 mm | - | 710 W/m² | - |
| 1778084226 | 30.56° C | 57% | 1017.2 hPa | 0 mm | - | 669 W/m² | - |
| 1778083922 | 30° C | 59% | 1017 hPa | 0 mm | - | 674 W/m² | - |
| 1778083620 | 30° C | 59% | 1017.2 hPa | 0 mm | - | 555 W/m² | - |
| 1778083317 | 30° C | 57% | 1017.2 hPa | 0 mm | - | 581 W/m² | - |
| 1778083015 | 30° C | 59% | 1017.1 hPa | 0 mm | - | 570 W/m² | - |
| 1778082712 | 29.44° C | 59% | 1017.4 hPa | 0 mm | - | 610 W/m² | - |
| 1778081574 | 29.44° C | 63% | 1017.3 hPa | 0 mm | - | 575 W/m² | - |
| 1778081270 | 28.89° C | 62% | 1017.3 hPa | 0 mm | - | 562 W/m² | - |
| 1778080968 | 29.44° C | 62% | 1017.3 hPa | 0 mm | - | 580 W/m² | - |
| 1778080667 | 29.44° C | 62% | 1017.2 hPa | 0 mm | - | 530 W/m² | - |
| 1778080363 | 28.89° C | 64% | 1017.1 hPa | 0 mm | - | 566 W/m² | - |
| 1778080060 | 28.89° C | 65% | 1017.4 hPa | 0 mm | - | 533 W/m² | - |
| 1778079757 | 28.33° C | 68% | 1017.2 hPa | 0 mm | - | 533 W/m² | - |
| 1778079454 | 28.89° C | 67% | 1017.4 hPa | 0 mm | - | 552 W/m² | - |
| 1778079150 | 28.33° C | 68% | 1017.2 hPa | 0 mm | - | 532 W/m² | - |
* Rain latest hour (hover to see other rain measurements)
** Current wind speed in m/s (hover to see current wind gust speed)